createdAt,value
2022-09-03T00:00:12.009Z,14.20
2022-09-03T00:02:45.790Z,14.20
2022-09-03T00:05:21.209Z,14.20
2022-09-03T00:07:57.071Z,14.20
2022-09-03T00:10:31.011Z,14.20
2022-09-03T00:13:02.877Z,14.20
2022-09-03T00:15:34.683Z,14.20
2022-09-03T00:18:07.367Z,14.10
2022-09-03T00:20:41.389Z,14.10
2022-09-03T00:23:16.131Z,14.10
2022-09-03T00:25:48.418Z,14.10
2022-09-03T00:28:20.116Z,14.10
2022-09-03T00:30:57.301Z,14.10
2022-09-03T00:33:30.339Z,14.00
2022-09-03T00:36:11.824Z,14.00
2022-09-03T00:38:41.702Z,14.00
2022-09-03T00:41:18.848Z,14.00
2022-09-03T00:44:01.102Z,14.00
2022-09-03T00:46:41.958Z,13.90
2022-09-03T00:49:28.368Z,13.90
2022-09-03T00:52:04.553Z,13.90
2022-09-03T00:54:45.507Z,13.90
2022-09-03T00:57:27.109Z,13.90
2022-09-03T01:00:04.153Z,13.80
2022-09-03T01:02:46.985Z,13.80
2022-09-03T01:05:26.823Z,13.80
2022-09-03T01:08:05.332Z,13.80
2022-09-03T01:10:42.182Z,13.80
2022-09-03T01:13:15.897Z,13.80
2022-09-03T01:15:54.542Z,13.70
2022-09-03T01:18:29.778Z,13.70
2022-09-03T01:21:18.344Z,13.70
2022-09-03T01:24:11.313Z,13.70
2022-09-03T01:27:08.739Z,13.70
2022-09-03T01:29:45.080Z,13.60
2022-09-03T01:32:18.109Z,13.60
2022-09-03T01:34:58.113Z,13.60
2022-09-03T01:37:39.626Z,13.60
2022-09-03T01:40:19.496Z,13.50
2022-09-03T01:43:01.504Z,13.50
2022-09-03T01:45:51.255Z,13.50
2022-09-03T01:48:38.157Z,13.50
2022-09-03T01:51:19.658Z,13.50
2022-09-03T01:54:10.935Z,13.40
2022-09-03T01:57:34.993Z,13.40
2022-09-03T02:00:08.122Z,13.40
2022-09-03T02:02:37.939Z,13.40
2022-09-03T02:05:09.990Z,13.40
2022-09-03T02:07:41.986Z,13.40
2022-09-03T02:10:13.813Z,13.30
2022-09-03T02:12:47.717Z,13.30
2022-09-03T02:15:19.482Z,13.30
2022-09-03T02:17:51.002Z,13.30
2022-09-03T02:20:22.069Z,13.20
2022-09-03T02:22:52.258Z,13.30
2022-09-03T02:25:26.142Z,13.20
2022-09-03T02:27:54.816Z,13.20
2022-09-03T02:30:23.246Z,13.20
2022-09-03T02:32:53.018Z,13.20
2022-09-03T02:35:21.391Z,13.20
2022-09-03T02:37:52.239Z,13.20
2022-09-03T02:40:20.669Z,13.20
2022-09-03T02:42:49.507Z,13.20
2022-09-03T02:45:28.340Z,13.10
2022-09-03T02:48:00.761Z,13.10
2022-09-03T02:50:33.368Z,13.10
2022-09-03T02:53:01.629Z,13.00
2022-09-03T02:55:31.001Z,13.00
2022-09-03T02:58:00.514Z,13.00
2022-09-03T03:00:29.709Z,12.90
2022-09-03T03:02:59.533Z,12.90
2022-09-03T03:05:34.172Z,12.90
2022-09-03T03:08:02.282Z,12.80
2022-09-03T03:10:31.132Z,12.80
2022-09-03T03:12:59.148Z,12.80
2022-09-03T03:15:28.224Z,12.80
2022-09-03T03:17:58.814Z,12.80
2022-09-03T03:20:26.787Z,12.80
2022-09-03T03:22:54.774Z,12.70
2022-09-03T03:25:22.917Z,12.70
2022-09-03T03:27:50.934Z,12.70
2022-09-03T03:30:19.933Z,12.70
2022-09-03T03:32:47.961Z,12.80
2022-09-03T03:35:17.513Z,12.80
2022-09-03T03:37:45.549Z,12.80
2022-09-03T03:40:15.041Z,12.70
2022-09-03T03:42:43.527Z,12.70
2022-09-03T03:45:12.042Z,12.70
2022-09-03T03:47:40.214Z,12.70
2022-09-03T03:50:09.003Z,12.70
2022-09-03T03:52:38.401Z,12.70
2022-09-03T03:55:07.800Z,12.80
2022-09-03T03:57:36.605Z,12.70
2022-09-03T04:00:05.676Z,12.70
2022-09-03T04:02:38.924Z,12.70
2022-09-03T04:05:07.975Z,12.70
2022-09-03T04:07:37.854Z,12.70
2022-09-03T04:10:06.799Z,12.70
2022-09-03T04:12:34.851Z,12.70
2022-09-03T04:15:03.204Z,12.70
2022-09-03T04:17:31.454Z,12.60
2022-09-03T04:19:59.473Z,12.70
2022-09-03T04:22:29.385Z,12.60
2022-09-03T04:24:58.757Z,12.60
2022-09-03T04:27:26.816Z,12.70
2022-09-03T04:29:54.829Z,12.60
2022-09-03T04:32:40.457Z,12.60
2022-09-03T04:35:09.019Z,12.60
2022-09-03T04:37:37.097Z,12.60
2022-09-03T04:40:07.966Z,12.60
2022-09-03T04:42:36.046Z,12.60
2022-09-03T04:45:04.349Z,12.60
2022-09-03T04:47:32.560Z,12.60
2022-09-03T04:50:01.728Z,12.60
2022-09-03T04:52:31.509Z,12.70
2022-09-03T04:54:59.535Z,12.70
2022-09-03T04:57:34.381Z,12.70
2022-09-03T05:00:02.409Z,12.60
2022-09-03T05:02:30.518Z,12.60
2022-09-03T05:04:58.580Z,12.60
2022-09-03T05:07:28.440Z,12.60
2022-09-03T05:09:58.613Z,12.60
2022-09-03T05:12:28.016Z,12.60
2022-09-03T05:14:56.126Z,12.60
2022-09-03T05:17:24.143Z,12.60
2022-09-03T05:19:52.189Z,12.60
2022-09-03T05:22:21.376Z,12.60
2022-09-03T05:24:49.722Z,12.60
2022-09-03T05:27:18.366Z,12.60
2022-09-03T05:29:47.813Z,12.60
2022-09-03T05:32:17.349Z,12.60
2022-09-03T05:34:45.594Z,12.60
2022-09-03T05:37:13.686Z,12.60
2022-09-03T05:39:42.019Z,12.70
2022-09-03T05:42:10.109Z,12.70
2022-09-03T05:44:39.061Z,12.80
2022-09-03T05:47:08.544Z,12.80
2022-09-03T05:49:37.032Z,12.90
2022-09-03T05:52:05.082Z,12.90
2022-09-03T05:54:33.164Z,13.00
2022-09-03T05:57:01.209Z,13.00
2022-09-03T05:59:29.335Z,13.10
2022-09-03T06:02:00.104Z,13.10
2022-09-03T06:04:29.955Z,13.10
2022-09-03T06:06:57.996Z,13.20
2022-09-03T06:09:26.048Z,13.20
2022-09-03T06:11:57.370Z,13.30
2022-09-03T06:14:26.814Z,13.40
2022-09-03T06:16:55.821Z,13.40
2022-09-03T06:19:23.918Z,13.50
2022-09-03T06:21:53.313Z,13.60
2022-09-03T06:24:23.338Z,13.70
2022-09-03T06:26:54.717Z,13.80
2022-09-03T06:29:22.908Z,13.90
2022-09-03T06:31:51.325Z,14.10
2022-09-03T06:34:19.506Z,14.20
2022-09-03T06:36:47.581Z,14.30
2022-09-03T06:39:17.002Z,14.30
2022-09-03T06:41:45.916Z,14.40
2022-09-03T06:44:14.714Z,14.50
2022-09-03T06:46:43.378Z,14.60
2022-09-03T06:49:12.627Z,14.70
2022-09-03T06:51:41.323Z,14.80
2022-09-03T06:54:11.515Z,15.00
2022-09-03T06:56:42.021Z,15.10
2022-09-03T06:59:11.734Z,15.20
2022-09-03T07:01:44.108Z,15.30
2022-09-03T07:04:16.085Z,15.40
2022-09-03T07:06:44.424Z,15.50
2022-09-03T07:09:14.942Z,15.70
2022-09-03T07:11:48.585Z,15.80
2022-09-03T07:14:17.989Z,15.90
2022-09-03T07:16:46.223Z,16.00
2022-09-03T07:19:14.580Z,16.20
2022-09-03T07:21:48.422Z,16.30
2022-09-03T07:24:18.265Z,16.40
2022-09-03T07:26:48.856Z,16.60
2022-09-03T07:29:20.335Z,16.70
2022-09-03T07:31:51.416Z,16.80
2022-09-03T07:34:20.433Z,17.00
2022-09-03T07:36:51.331Z,17.10
2022-09-03T07:39:20.336Z,17.20
2022-09-03T07:41:50.662Z,17.30
2022-09-03T07:44:20.412Z,17.50
2022-09-03T07:46:50.823Z,17.60
2022-09-03T07:49:20.306Z,17.60
2022-09-03T07:51:50.776Z,17.70
2022-09-03T07:54:20.316Z,17.90
2022-09-03T07:56:49.719Z,18.00
2022-09-03T07:59:18.155Z,18.10
2022-09-03T08:01:46.183Z,18.10
2022-09-03T08:04:14.339Z,18.10
2022-09-03T08:06:42.437Z,18.20
2022-09-03T08:09:13.707Z,18.20
2022-09-03T08:11:44.308Z,18.30
2022-09-03T08:14:15.427Z,18.40
2022-09-03T08:16:47.279Z,18.50
2022-09-03T08:19:15.431Z,18.60
2022-09-03T08:21:43.651Z,18.70
2022-09-03T08:24:12.878Z,18.80
2022-09-03T08:26:46.260Z,19.00
2022-09-03T08:29:17.236Z,19.10
2022-09-03T08:31:45.488Z,19.20
2022-09-03T08:34:14.754Z,19.30
2022-09-03T08:36:43.038Z,19.40
2022-09-03T08:39:12.260Z,19.50
2022-09-03T08:41:57.823Z,19.60
2022-09-03T08:44:30.975Z,19.70
2022-09-03T08:47:03.113Z,19.70
2022-09-03T08:49:40.683Z,19.70
2022-09-03T08:52:20.004Z,19.80
2022-09-03T08:54:50.253Z,19.80
2022-09-03T08:57:21.503Z,19.90
2022-09-03T08:59:56.075Z,20.00
2022-09-03T09:02:31.162Z,20.00
2022-09-03T09:05:07.633Z,20.00
2022-09-03T09:07:43.558Z,20.00
2022-09-03T09:10:17.626Z,20.00
2022-09-03T09:13:05.430Z,20.20
2022-09-03T09:15:49.982Z,20.40
2022-09-03T09:18:27.111Z,20.40
2022-09-03T09:21:09.512Z,20.50
2022-09-03T09:23:42.680Z,20.60
2022-09-03T09:26:14.383Z,20.80
2022-09-03T09:28:44.727Z,20.80
2022-09-03T09:31:18.816Z,20.70
2022-09-03T09:33:47.226Z,20.70
2022-09-03T09:36:17.659Z,20.70
2022-09-03T09:38:46.747Z,20.80
2022-09-03T09:41:16.929Z,20.80
2022-09-03T09:43:45.494Z,20.90
2022-09-03T09:46:18.300Z,20.90
2022-09-03T09:48:51.986Z,21.00
2022-09-03T09:51:22.793Z,21.00
2022-09-03T09:54:02.565Z,21.10
2022-09-03T09:56:30.961Z,21.20
2022-09-03T09:59:07.649Z,21.40
2022-09-03T10:01:39.589Z,21.40
2022-09-03T10:04:13.551Z,21.40
2022-09-03T10:06:57.162Z,21.50
2022-09-03T10:09:31.117Z,21.50
2022-09-03T10:12:14.379Z,21.50
2022-09-03T10:14:48.684Z,21.50
2022-09-03T10:17:26.592Z,21.70
2022-09-03T10:20:31.969Z,21.70
2022-09-03T10:23:04.299Z,21.80
2022-09-03T10:25:41.831Z,22.00
2022-09-03T10:28:13.467Z,22.00
2022-09-03T10:31:13.870Z,22.00
2022-09-03T10:33:49.230Z,22.00
2022-09-03T10:36:23.152Z,22.00
2022-09-03T10:39:01.046Z,22.00
2022-09-03T10:41:42.253Z,22.10
2022-09-03T10:44:35.518Z,22.00
2022-09-03T10:47:21.010Z,21.90
2022-09-03T10:49:58.563Z,21.90
2022-09-03T10:52:31.832Z,21.90
2022-09-03T10:55:11.117Z,22.00
2022-09-03T10:57:49.564Z,22.00
2022-09-03T11:00:20.166Z,22.00
2022-09-03T11:03:20.995Z,22.10
2022-09-03T11:06:00.156Z,22.20
2022-09-03T11:08:31.921Z,22.10
2022-09-03T11:11:11.688Z,22.10
2022-09-03T11:13:45.430Z,22.10
2022-09-03T11:16:20.097Z,22.10
2022-09-03T11:18:51.274Z,22.20
2022-09-03T11:21:24.216Z,22.20
2022-09-03T11:23:58.168Z,22.20
2022-09-03T11:26:28.001Z,22.40
2022-09-03T11:29:02.826Z,22.50
2022-09-03T11:31:40.704Z,22.60
2022-09-03T11:34:23.242Z,22.70
2022-09-03T11:37:06.892Z,22.70
2022-09-03T11:39:37.954Z,22.50
2022-09-03T11:42:12.886Z,22.40
2022-09-03T11:44:50.990Z,22.30
2022-09-03T11:47:24.509Z,22.20
2022-09-03T11:49:54.626Z,22.10
2022-09-03T11:52:32.291Z,22.10
2022-09-03T11:55:03.162Z,22.10
2022-09-03T11:57:33.501Z,22.10
2022-09-03T12:00:12.854Z,22.10
2022-09-03T12:02:46.752Z,22.20
2022-09-03T12:05:27.532Z,22.30
2022-09-03T12:08:18.807Z,22.30
2022-09-03T12:10:54.453Z,22.30
2022-09-03T12:13:34.210Z,22.30
2022-09-03T12:16:23.899Z,22.40
2022-09-03T12:18:53.200Z,22.50
2022-09-03T12:21:21.550Z,22.50
2022-09-03T12:23:58.051Z,22.60
2022-09-03T12:26:28.187Z,22.70
2022-09-03T12:28:58.507Z,22.70
2022-09-03T12:31:29.928Z,22.60
2022-09-03T12:34:00.817Z,22.60
2022-09-03T12:36:38.479Z,22.40
2022-09-03T12:39:13.020Z,22.20
2022-09-03T12:41:57.088Z,22.30
2022-09-03T12:44:29.624Z,22.40
2022-09-03T12:50:07.218Z,22.10
2022-09-03T12:52:39.001Z,22.10
2022-09-03T12:55:16.394Z,22.20
2022-09-03T12:57:47.881Z,22.30
2022-09-03T13:00:18.448Z,22.50
2022-09-03T13:02:51.455Z,22.60
2022-09-03T13:05:22.875Z,22.70
2022-09-03T13:07:54.638Z,22.70
2022-09-03T13:10:29.852Z,22.70
2022-09-03T13:13:01.605Z,22.80
2022-09-03T13:15:31.012Z,22.80
2022-09-03T13:18:18.983Z,22.70
2022-09-03T13:21:01.960Z,22.50
2022-09-03T13:23:49.104Z,22.30
2022-09-03T13:26:29.271Z,22.30
2022-09-03T13:29:16.891Z,22.30
2022-09-03T13:31:48.399Z,22.30
2022-09-03T13:34:24.166Z,22.40
2022-09-03T13:36:57.838Z,22.40
2022-09-03T13:39:31.451Z,22.40
2022-09-03T13:42:06.946Z,22.40
2022-09-03T13:44:43.746Z,22.30
2022-09-03T13:47:20.482Z,22.30
2022-09-03T13:50:13.304Z,22.40
2022-09-03T13:52:47.751Z,22.50
2022-09-03T13:55:23.173Z,22.50
2022-09-03T13:58:01.669Z,22.60
2022-09-03T14:00:34.424Z,22.60
2022-09-03T14:03:12.083Z,22.50
2022-09-03T14:05:55.808Z,22.50
2022-09-03T14:08:30.210Z,22.40
2022-09-03T14:11:04.746Z,22.30
2022-09-03T14:13:48.427Z,22.40
2022-09-03T14:16:27.057Z,22.40
2022-09-03T14:19:00.391Z,22.40
2022-09-03T14:21:32.598Z,22.50
2022-09-03T14:24:07.954Z,22.50
2022-09-03T14:26:40.010Z,22.50
2022-09-03T14:29:18.007Z,22.40
2022-09-03T14:32:10.775Z,22.30
2022-09-03T14:34:53.597Z,22.30
2022-09-03T14:37:40.137Z,22.20
2022-09-03T14:40:18.154Z,22.20
2022-09-03T14:43:01.474Z,22.20
2022-09-03T14:45:55.418Z,22.20
2022-09-03T14:48:58.092Z,22.30
2022-09-03T14:51:40.311Z,22.30
2022-09-03T14:54:35.967Z,22.30
2022-09-03T14:57:33.414Z,22.40
2022-09-03T15:00:10.354Z,22.30
2022-09-03T15:03:23.218Z,22.30
2022-09-03T15:06:12.280Z,22.10
2022-09-03T15:08:56.139Z,22.00
2022-09-03T15:11:27.640Z,21.80
2022-09-03T15:14:07.432Z,21.70
2022-09-03T15:16:47.184Z,21.60
2022-09-03T15:19:34.225Z,21.60
2022-09-03T15:22:14.159Z,21.60
2022-09-03T15:24:54.656Z,21.60
2022-09-03T15:27:41.671Z,21.60
2022-09-03T15:30:11.895Z,21.60
2022-09-03T15:32:49.878Z,21.60
2022-09-03T15:35:38.103Z,21.70
2022-09-03T15:38:12.248Z,21.70
2022-09-03T15:40:50.032Z,21.80
2022-09-03T15:43:22.479Z,21.70
2022-09-03T15:45:59.895Z,21.70
2022-09-03T15:48:35.269Z,21.70
2022-09-03T15:51:14.613Z,21.60
2022-09-03T15:53:53.409Z,21.60
2022-09-03T15:56:27.977Z,21.50
2022-09-03T15:59:04.923Z,21.60
2022-09-03T16:01:47.205Z,21.60
2022-09-03T16:04:34.891Z,21.70
2022-09-03T16:07:11.370Z,21.70
2022-09-03T16:10:20.377Z,21.60
2022-09-03T16:12:48.802Z,21.60
2022-09-03T16:15:23.341Z,21.50
2022-09-03T16:17:58.109Z,21.50
2022-09-03T16:20:35.311Z,21.40
2022-09-03T16:23:08.706Z,21.40
2022-09-03T16:25:49.703Z,21.40
2022-09-03T16:28:22.086Z,21.30
2022-09-03T16:31:05.095Z,21.20
2022-09-03T16:33:42.266Z,21.20
2022-09-03T16:36:30.092Z,21.20
2022-09-03T16:39:04.108Z,21.10
2022-09-03T16:41:37.776Z,21.10
2022-09-03T16:44:14.663Z,21.00
2022-09-03T16:46:53.499Z,20.90
2022-09-03T16:49:38.538Z,20.80
2022-09-03T16:52:16.252Z,20.80
2022-09-03T16:54:58.619Z,20.80
2022-09-03T16:57:44.178Z,20.80
2022-09-03T17:00:14.745Z,20.80
2022-09-03T17:03:04.088Z,20.70
2022-09-03T17:05:53.303Z,20.70
2022-09-03T17:08:28.576Z,20.60
2022-09-03T17:11:11.100Z,20.60
2022-09-03T17:13:56.184Z,20.50
2022-09-03T17:16:38.991Z,20.50
2022-09-03T17:19:15.659Z,20.40
2022-09-03T17:21:52.174Z,20.30
2022-09-03T17:24:39.858Z,20.20
2022-09-03T17:27:23.430Z,20.10
2022-09-03T17:30:16.533Z,20.10
2022-09-03T17:33:09.823Z,20.00
2022-09-03T17:35:44.172Z,20.00
2022-09-03T17:38:24.297Z,19.90
2022-09-03T17:41:08.946Z,19.80
2022-09-03T17:43:45.636Z,19.70
2022-09-03T17:46:29.713Z,19.60
2022-09-03T17:49:00.751Z,19.50
2022-09-03T17:51:36.024Z,19.40
2022-09-03T17:54:10.126Z,19.30
2022-09-03T17:56:48.111Z,19.30
2022-09-03T17:59:33.931Z,19.20
2022-09-03T18:02:05.569Z,19.20
2022-09-03T18:04:45.674Z,19.10
2022-09-03T18:07:24.148Z,19.00
2022-09-03T18:10:03.147Z,19.00
2022-09-03T18:12:39.484Z,19.00
2022-09-03T18:15:13.670Z,19.00
2022-09-03T18:17:49.282Z,18.90
2022-09-03T18:20:34.874Z,18.80
2022-09-03T18:23:25.499Z,18.80
2022-09-03T18:26:15.347Z,18.70
2022-09-03T18:29:08.800Z,18.70
2022-09-03T18:31:57.264Z,18.70
2022-09-03T18:34:49.384Z,18.60
2022-09-03T18:37:38.932Z,18.60
2022-09-03T18:40:28.678Z,18.60
2022-09-03T18:43:28.191Z,18.60
2022-09-03T18:49:30.151Z,18.50
2022-09-03T18:52:24.097Z,18.50
2022-09-03T18:55:20.122Z,18.40
2022-09-03T18:58:21.272Z,18.40
2022-09-03T19:01:17.804Z,18.30
2022-09-03T19:04:15.356Z,18.30
2022-09-03T19:07:10.295Z,18.30
2022-09-03T19:10:07.015Z,18.30
2022-09-03T19:13:06.504Z,18.20
2022-09-03T19:15:58.554Z,18.20
2022-09-03T19:18:55.248Z,18.20
2022-09-03T19:21:50.900Z,18.20
2022-09-03T19:24:38.727Z,18.20
2022-09-03T19:30:50.749Z,18.10
2022-09-03T19:33:44.438Z,18.10
2022-09-03T19:36:40.432Z,18.10
2022-09-03T19:39:38.253Z,18.10
2022-09-03T19:42:36.179Z,18.10
2022-09-03T19:45:30.489Z,18.10
2022-09-03T19:48:27.741Z,18.10
2022-09-03T19:51:24.179Z,18.10
2022-09-03T19:54:11.238Z,18.10
2022-09-03T19:56:58.094Z,18.00
2022-09-03T19:59:51.198Z,18.00
2022-09-03T20:02:36.925Z,17.90
2022-09-03T20:05:28.815Z,17.90
2022-09-03T20:08:15.949Z,17.80
2022-09-03T20:10:46.271Z,17.80
2022-09-03T20:13:17.175Z,17.80
2022-09-03T20:15:54.204Z,17.70
2022-09-03T20:18:32.416Z,17.70
2022-09-03T20:21:09.424Z,17.60
2022-09-03T20:23:46.351Z,17.60
2022-09-03T20:26:28.981Z,17.50
2022-09-03T20:29:21.183Z,17.40
2022-09-03T20:31:58.284Z,17.40
2022-09-03T20:34:48.835Z,17.30
2022-09-03T20:37:25.853Z,17.30
2022-09-03T20:40:06.543Z,17.20
2022-09-03T20:43:06.723Z,17.20
2022-09-03T20:45:45.219Z,17.20
2022-09-03T20:48:23.787Z,17.10
2022-09-03T20:51:00.076Z,17.20
2022-09-03T20:53:48.934Z,17.10
2022-09-03T20:56:23.251Z,17.10
2022-09-03T20:59:00.180Z,17.10
2022-09-03T21:01:35.250Z,17.10
2022-09-03T21:04:20.329Z,17.00
2022-09-03T21:06:56.056Z,17.00
2022-09-03T21:09:34.863Z,17.00
2022-09-03T21:12:12.245Z,17.00
2022-09-03T21:14:43.672Z,17.00
2022-09-03T21:17:31.860Z,17.00
2022-09-03T21:20:15.672Z,17.00
2022-09-03T21:22:53.663Z,16.90
2022-09-03T21:25:26.285Z,16.90
2022-09-03T21:28:00.450Z,16.80
2022-09-03T21:30:31.007Z,16.80
2022-09-03T21:33:05.859Z,16.80
2022-09-03T21:35:40.752Z,16.70
2022-09-03T21:38:12.707Z,16.70
2022-09-03T21:40:47.608Z,16.70
2022-09-03T21:43:20.135Z,16.70
2022-09-03T21:45:54.571Z,16.70
2022-09-03T21:48:26.132Z,16.70
2022-09-03T21:50:58.479Z,16.70
2022-09-03T21:53:31.483Z,16.70
2022-09-03T21:56:23.676Z,16.60
2022-09-03T21:59:08.718Z,16.60
2022-09-03T22:01:52.148Z,16.60
2022-09-03T22:04:20.250Z,16.50
2022-09-03T22:07:04.826Z,16.50
2022-09-03T22:09:39.044Z,16.50
2022-09-03T22:12:14.732Z,16.50
2022-09-03T22:14:50.619Z,16.50
2022-09-03T22:17:24.084Z,16.50
2022-09-03T22:19:53.909Z,16.40
2022-09-03T22:22:30.260Z,16.40
2022-09-03T22:25:05.053Z,16.40
2022-09-03T22:27:40.340Z,16.40
2022-09-03T22:30:11.287Z,16.40
2022-09-03T22:32:51.988Z,16.40
2022-09-03T22:35:46.411Z,16.40
2022-09-03T22:38:40.000Z,16.40
2022-09-03T22:41:25.450Z,16.40
2022-09-03T22:44:03.506Z,16.40
2022-09-03T22:46:40.057Z,16.40
2022-09-03T22:49:24.598Z,16.40
2022-09-03T22:52:04.018Z,16.40
2022-09-03T22:54:47.513Z,16.30
2022-09-03T22:57:16.957Z,16.30
2022-09-03T22:59:54.169Z,16.30
2022-09-03T23:02:24.871Z,16.30
2022-09-03T23:05:02.516Z,16.30
2022-09-03T23:07:35.929Z,16.30
2022-09-03T23:10:09.938Z,16.30
2022-09-03T23:12:44.150Z,16.30
2022-09-03T23:15:21.668Z,16.30
2022-09-03T23:17:54.848Z,16.30
2022-09-03T23:20:26.146Z,16.30
2022-09-03T23:23:03.424Z,16.30
2022-09-03T23:25:37.619Z,16.20
2022-09-03T23:28:12.115Z,16.20
2022-09-03T23:30:41.719Z,16.30
2022-09-03T23:33:09.784Z,16.30
2022-09-03T23:35:48.379Z,16.30
2022-09-03T23:38:24.427Z,16.30
2022-09-03T23:40:58.406Z,16.40
2022-09-03T23:44:01.561Z,16.30
2022-09-03T23:46:37.929Z,16.30
2022-09-03T23:49:34.013Z,16.30
2022-09-03T23:52:26.392Z,16.30
2022-09-03T23:55:05.152Z,16.30
2022-09-03T23:57:40.513Z,16.20
